Time;durP1;ratioP1;P1;durP2;ratioP2;P2;SDS_P1;SDS_P2;PMS_P1;PMS_P2;Temp;Humidity;BMP_temperature;BMP_pressure;BME280_temperature;BME280_humidity;BME280_pressure;Samples;Min_cycle;Max_cycle;Signal;HPM_P1;HPM_P2
2023/04/12 00:01:23;;;;;;;4.10;1.80;;;;;;;;;;5001050;28;20221;-68
2023/04/12 00:04:27;;;;;;;3.00;1.70;;;;;;;;;;5012948;28;20213;-68
2023/04/12 00:07:31;;;;;;;4.67;1.70;;;;;;;;;;5013222;28;20525;-68
2023/04/12 00:10:35;;;;;;;4.77;2.13;;;;;;;;;;5013534;28;20185;-68
2023/04/12 00:13:40;;;;;;;3.27;1.70;;;;;;;;;;5013216;28;20174;-68
2023/04/12 00:16:44;;;;;;;5.90;2.70;;;;;;;;;;5013245;28;20177;-68
2023/04/12 00:19:49;;;;;;;5.73;1.80;;;;;;;;;;4990320;28;20185;-68
2023/04/12 00:22:53;;;;;;;2.90;1.73;;;;;;;;;;5001329;28;20177;-68
2023/04/12 00:25:58;;;;;;;4.40;1.57;;;;;;;;;;5001060;28;20495;-68
2023/04/12 00:29:02;;;;;;;5.40;1.60;;;;;;;;;;5012797;28;20197;-68
2023/04/12 00:32:06;;;;;;;4.23;1.83;;;;;;;;;;5012727;28;20218;-68
2023/04/12 00:35:10;;;;;;;7.30;1.87;;;;;;;;;;5001005;28;20182;-68
2023/04/12 00:38:16;;;;;;;3.60;1.70;;;;;;;;;;5004592;28;20201;-69
2023/04/12 00:41:20;;;;;;;4.93;1.70;;;;;;;;;;5016370;28;20697;-68
2023/04/12 00:44:24;;;;;;;5.30;1.63;;;;;;;;;;5004595;28;20217;-68
2023/04/12 00:47:29;;;;;;;4.57;1.73;;;;;;;;;;5004109;28;20205;-69
2023/04/12 00:50:34;;;;;;;3.90;1.70;;;;;;;;;;4993097;28;20662;-68
2023/04/12 00:53:39;;;;;;;7.00;2.20;;;;;;;;;;4992991;28;20193;-68
2023/04/12 00:56:44;;;;;;;5.97;2.00;;;;;;;;;;5016146;28;20535;-68
2023/04/12 00:59:51;;;;;;;4.80;2.07;;;;;;;;;;5016165;28;20189;-68
2023/04/12 01:02:55;;;;;;;5.53;2.23;;;;;;;;;;5016038;28;20647;-68
2023/04/12 01:06:12;;;;;;;4.67;2.07;;;;;;;;;;5016090;28;20186;-68
2023/04/12 01:09:35;;;;;;;4.23;1.90;;;;;;;;;;5016311;28;20182;-68
2023/04/12 01:12:48;;;;;;;4.83;2.27;;;;;;;;;;5003475;28;20570;-68
2023/04/12 01:16:33;;;;;;;8.80;2.30;;;;;;;;;;5003510;28;20193;-68
2023/04/12 01:19:53;;;;;;;5.93;2.40;;;;;;;;;;4992472;28;20198;-68
2023/04/12 01:23:36;;;;;;;3.97;2.03;;;;;;;;;;5015256;28;20523;-68
2023/04/12 01:26:43;;;;;;;4.20;2.27;;;;;;;;;;4955499;28;20542;-68
2023/04/12 01:29:50;;;;;;;4.90;2.63;;;;;;;;;;5015348;28;20205;-68
2023/04/12 01:32:57;;;;;;;5.17;2.37;;;;;;;;;;5015279;28;20201;-68
2023/04/12 01:36:04;;;;;;;3.90;2.83;;;;;;;;;;5014386;28;20198;-68
2023/04/12 01:39:09;;;;;;;5.37;2.47;;;;;;;;;;5002973;28;20208;-68
2023/04/12 01:42:19;;;;;;;5.60;2.63;;;;;;;;;;5014319;28;20225;-68
2023/04/12 01:45:23;;;;;;;5.77;2.63;;;;;;;;;;5014404;28;20217;-68
2023/04/12 01:48:27;;;;;;;8.00;2.63;;;;;;;;;;4991078;28;20638;-68
2023/04/12 01:51:44;;;;;;;5.37;2.70;;;;;;;;;;5003378;28;20221;-68
2023/04/12 01:54:53;;;;;;;3.90;2.20;;;;;;;;;;5014845;28;20197;-68
2023/04/12 01:58:00;;;;;;;6.37;3.17;;;;;;;;;;5014216;28;20654;-68
2023/04/12 02:01:06;;;;;;;6.43;3.13;;;;;;;;;;5014131;28;20677;-68
2023/04/12 02:04:10;;;;;;;6.17;3.10;;;;;;;;;;5002751;28;20214;-68
2023/04/12 02:07:17;;;;;;;5.83;2.90;;;;;;;;;;5002871;28;20181;-68
2023/04/12 02:10:28;;;;;;;4.63;2.67;;;;;;;;;;5002583;28;20207;-68
2023/04/12 02:13:32;;;;;;;3.73;2.60;;;;;;;;;;5002443;28;20185;-68
2023/04/12 02:16:36;;;;;;;4.33;2.53;;;;;;;;;;5002651;28;20174;-68
2023/04/12 02:19:42;;;;;;;6.03;2.50;;;;;;;;;;5014658;28;20181;-68
2023/04/12 02:22:47;;;;;;;4.83;2.60;;;;;;;;;;5002570;28;20653;-68
2023/04/12 02:25:52;;;;;;;3.80;2.50;;;;;;;;;;5002386;28;20213;-68
2023/04/12 02:28:57;;;;;;;5.13;2.37;;;;;;;;;;5002055;28;20535;-68
2023/04/12 02:32:01;;;;;;;4.13;2.87;;;;;;;;;;5001862;28;20217;-68
2023/04/12 02:35:07;;;;;;;5.83;2.97;;;;;;;;;;5002231;28;20174;-68
2023/04/12 02:38:12;;;;;;;4.70;2.20;;;;;;;;;;5001787;28;20182;-69
2023/04/12 02:41:19;;;;;;;3.63;2.40;;;;;;;;;;5001739;28;20225;-68
2023/04/12 02:44:24;;;;;;;4.90;2.30;;;;;;;;;;5002251;28;20544;-69
2023/04/12 02:47:45;;;;;;;5.80;2.40;;;;;;;;;;4990823;28;20189;-69
2023/04/12 02:50:49;;;;;;;4.63;2.43;;;;;;;;;;5013881;28;20217;-69
2023/04/12 02:53:56;;;;;;;5.50;2.60;;;;;;;;;;5001590;28;20189;-69
2023/04/12 02:57:04;;;;;;;4.70;2.60;;;;;;;;;;5001570;28;20185;-69
2023/04/12 03:00:15;;;;;;;9.37;2.60;;;;;;;;;;5001673;28;20622;-69
2023/04/12 03:03:34;;;;;;;3.50;2.60;;;;;;;;;;5001375;28;20635;-69
2023/04/12 03:06:52;;;;;;;3.33;2.43;;;;;;;;;;4990672;28;20182;-69
2023/04/12 03:10:03;;;;;;;6.60;2.73;;;;;;;;;;4991088;28;20186;-70
2023/04/12 03:13:09;;;;;;;6.60;2.70;;;;;;;;;;5001333;28;20190;-69
2023/04/12 03:16:28;;;;;;;9.17;2.50;;;;;;;;;;5001557;28;20186;-70
2023/04/12 03:19:40;;;;;;;7.10;2.57;;;;;;;;;;5002724;28;20189;-69
2023/04/12 03:22:44;;;;;;;4.73;2.40;;;;;;;;;;5001168;28;20217;-68
2023/04/12 03:25:49;;;;;;;4.87;2.47;;;;;;;;;;5001552;28;20221;-69
2023/04/12 03:29:12;;;;;;;6.17;2.67;;;;;;;;;;5001412;28;20626;-69
2023/04/12 03:32:19;;;;;;;5.50;2.67;;;;;;;;;;4990132;28;20225;-69
2023/04/12 03:35:25;;;;;;;3.30;2.47;;;;;;;;;;5001371;28;20181;-69
2023/04/12 03:38:29;;;;;;;5.87;3.07;;;;;;;;;;5013230;28;20213;-69
2023/04/12 03:41:33;;;;;;;5.47;2.97;;;;;;;;;;5000896;28;20696;-68
2023/04/12 03:44:41;;;;;;;5.20;2.70;;;;;;;;;;4989952;28;20555;-69
2023/04/12 03:47:49;;;;;;;6.30;2.60;;;;;;;;;;5000941;28;20500;-69
2023/04/12 03:50:58;;;;;;;4.17;2.40;;;;;;;;;;5001142;28;20221;-69
2023/04/12 03:54:03;;;;;;;4.73;2.20;;;;;;;;;;5012132;28;20201;-69
2023/04/12 03:57:15;;;;;;;4.77;2.50;;;;;;;;;;5000891;28;20523;-69
2023/04/12 04:00:22;;;;;;;5.70;2.97;;;;;;;;;;5000628;28;20201;-69
2023/04/12 04:03:45;;;;;;;3.10;2.27;;;;;;;;;;5000751;28;20194;-69
2023/04/12 04:07:01;;;;;;;3.20;2.33;;;;;;;;;;5001085;28;20646;-69
2023/04/12 04:10:09;;;;;;;4.93;2.50;;;;;;;;;;4990072;28;20182;-69
2023/04/12 04:13:16;;;;;;;8.27;2.53;;;;;;;;;;4993577;28;20181;-69
2023/04/12 04:16:20;;;;;;;5.57;2.20;;;;;;;;;;5004739;28;20178;-69
2023/04/12 04:19:26;;;;;;;7.63;2.53;;;;;;;;;;4993528;28;20533;-69
2023/04/12 04:22:31;;;;;;;5.83;2.30;;;;;;;;;;5004316;28;20221;-69
2023/04/12 04:25:38;;;;;;;5.07;2.00;;;;;;;;;;5004400;28;20213;-69
2023/04/12 04:28:45;;;;;;;5.97;2.20;;;;;;;;;;4993275;28;20182;-69
2023/04/12 04:31:53;;;;;;;5.73;2.03;;;;;;;;;;5004275;28;20225;-69
2023/04/12 04:34:58;;;;;;;3.80;1.90;;;;;;;;;;5016494;28;20177;-69
2023/04/12 04:38:06;;;;;;;3.77;1.80;;;;;;;;;;5004137;28;20181;-70
2023/04/12 04:41:11;;;;;;;3.70;2.03;;;;;;;;;;5004075;28;20221;-69
2023/04/12 04:44:34;;;;;;;4.83;2.30;;;;;;;;;;5003952;28;20197;-69
2023/04/12 04:47:41;;;;;;;4.17;2.07;;;;;;;;;;4992871;28;20190;-69
2023/04/12 04:50:45;;;;;;;6.63;2.40;;;;;;;;;;5016114;28;20229;-69
2023/04/12 04:53:50;;;;;;;4.00;1.77;;;;;;;;;;5004095;28;20181;-69
2023/04/12 04:56:56;;;;;;;2.70;1.80;;;;;;;;;;4993074;28;20181;-69
2023/04/12 05:00:00;;;;;;;4.93;1.63;;;;;;;;;;4992669;28;20201;-69
2023/04/12 05:03:03;;;;;;;4.50;2.07;;;;;;;;;;5003658;28;20197;-69
2023/04/12 05:06:08;;;;;;;4.83;2.03;;;;;;;;;;5003519;28;20225;-69
2023/04/12 05:09:14;;;;;;;4.60;2.03;;;;;;;;;;4992468;28;20197;-69
2023/04/12 05:12:25;;;;;;;3.77;2.50;;;;;;;;;;5003602;28;20213;-69
2023/04/12 05:15:32;;;;;;;4.93;2.27;;;;;;;;;;4992346;28;20198;-69
2023/04/12 05:18:37;;;;;;;4.70;2.27;;;;;;;;;;4992157;28;20189;-69
2023/04/12 05:21:41;;;;;;;4.43;2.50;;;;;;;;;;5003205;28;20217;-69
2023/04/12 05:24:46;;;;;;;2.77;2.30;;;;;;;;;;5003331;28;20181;-69
2023/04/12 05:27:50;;;;;;;5.47;2.70;;;;;;;;;;5003347;28;20185;-69
2023/04/12 05:30:55;;;;;;;6.00;2.90;;;;;;;;;;5003279;28;20698;-68
2023/04/12 05:34:03;;;;;;;5.33;2.87;;;;;;;;;;5003074;28;20535;-69
2023/04/12 05:37:11;;;;;;;5.60;3.20;;;;;;;;;;5003373;28;20181;-69
2023/04/12 05:40:16;;;;;;;5.27;3.10;;;;;;;;;;5002880;28;20216;-68
2023/04/12 05:43:20;;;;;;;4.07;2.70;;;;;;;;;;5003236;28;20201;-69
2023/04/12 05:46:24;;;;;;;7.03;3.10;;;;;;;;;;5003071;28;20225;-69
2023/04/12 05:49:30;;;;;;;3.77;2.33;;;;;;;;;;5015231;28;20193;-69
2023/04/12 05:52:36;;;;;;;6.93;2.60;;;;;;;;;;4980637;28;20221;-69
2023/04/12 05:55:42;;;;;;;6.60;2.33;;;;;;;;;;5014275;28;20521;-69
2023/04/12 05:58:46;;;;;;;5.47;2.30;;;;;;;;;;5002935;28;20520;-69
2023/04/12 06:01:51;;;;;;;7.27;2.40;;;;;;;;;;5015073;28;20582;-68
2023/04/12 06:04:57;;;;;;;6.20;2.27;;;;;;;;;;5002529;28;20196;-69
2023/04/12 06:08:07;;;;;;;7.63;2.13;;;;;;;;;;5014842;28;20213;-69
2023/04/12 06:11:11;;;;;;;2.47;1.93;;;;;;;;;;5014515;28;20225;-69
2023/04/12 06:14:15;;;;;;;5.63;2.00;;;;;;;;;;5002693;28;20182;-69
2023/04/12 06:17:22;;;;;;;3.87;2.00;;;;;;;;;;5002741;28;20185;-68
2023/04/12 06:20:26;;;;;;;5.30;1.73;;;;;;;;;;5002211;28;20181;-68
2023/04/12 06:23:30;;;;;;;5.23;2.27;;;;;;;;;;5013755;28;20185;-69
2023/04/12 06:26:35;;;;;;;3.60;1.93;;;;;;;;;;5002365;28;20213;-68
2023/04/12 06:29:39;;;;;;;6.03;1.57;;;;;;;;;;4991201;28;20178;-69
2023/04/12 06:32:44;;;;;;;4.37;1.90;;;;;;;;;;5001739;28;20217;-69
2023/04/12 06:35:49;;;;;;;6.87;1.93;;;;;;;;;;5002244;28;20177;-69
2023/04/12 06:38:53;;;;;;;3.70;1.90;;;;;;;;;;5001786;28;20213;-69
2023/04/12 06:41:58;;;;;;;7.00;2.07;;;;;;;;;;5013879;28;20570;-68
2023/04/12 06:45:03;;;;;;;4.70;2.03;;;;;;;;;;5002136;28;20185;-69
2023/04/12 06:48:07;;;;;;;4.13;1.90;;;;;;;;;;5013663;28;20177;-69
2023/04/12 06:51:11;;;;;;;5.40;1.77;;;;;;;;;;5013636;28;20217;-69
2023/04/12 06:54:15;;;;;;;5.43;2.53;;;;;;;;;;5001970;28;20185;-69
2023/04/12 06:57:19;;;;;;;5.13;1.83;;;;;;;;;;5013887;28;20528;-71
2023/04/12 07:00:24;;;;;;;3.93;1.80;;;;;;;;;;5014131;28;20182;-70
2023/04/12 07:03:30;;;;;;;4.10;1.87;;;;;;;;;;5013787;28;20186;-69
2023/04/12 07:06:34;;;;;;;3.27;1.80;;;;;;;;;;5013553;28;20213;-70
2023/04/12 07:09:38;;;;;;;5.40;2.10;;;;;;;;;;5001676;28;20185;-70
2023/04/12 07:12:42;;;;;;;5.43;1.83;;;;;;;;;;5013795;28;20558;-70
2023/04/12 07:15:51;;;;;;;5.03;1.97;;;;;;;;;;5001638;28;20662;-70
2023/04/12 07:18:55;;;;;;;2.03;1.70;;;;;;;;;;5001753;28;20189;-70
2023/04/12 07:21:59;;;;;;;5.63;1.93;;;;;;;;;;5013460;28;20221;-71
2023/04/12 07:25:08;;;;;;;3.93;2.17;;;;;;;;;;5001752;28;20197;-71
2023/04/12 07:28:12;;;;;;;5.30;2.03;;;;;;;;;;4990482;28;20181;-70
2023/04/12 07:31:17;;;;;;;5.43;1.70;;;;;;;;;;5013527;28;20225;-71
2023/04/12 07:34:21;;;;;;;4.57;1.77;;;;;;;;;;5001504;28;20181;-70
2023/04/12 07:37:25;;;;;;;4.37;1.97;;;;;;;;;;5013612;28;20177;-71
2023/04/12 07:40:29;;;;;;;4.80;2.03;;;;;;;;;;5013485;28;20182;-70
2023/04/12 07:43:34;;;;;;;2.73;1.70;;;;;;;;;;5013522;28;20189;-71
2023/04/12 07:46:38;;;;;;;5.07;1.90;;;;;;;;;;5015340;28;20684;-71
2023/04/12 07:49:42;;;;;;;4.60;1.70;;;;;;;;;;5017327;28;20197;-71
2023/04/12 07:52:46;;;;;;;3.97;1.77;;;;;;;;;;5006108;28;20642;-70
2023/04/12 07:55:51;;;;;;;3.77;1.90;;;;;;;;;;5017207;28;20189;-70
2023/04/12 07:58:55;;;;;;;5.10;1.73;;;;;;;;;;5017322;28;20189;-71
2023/04/12 08:02:00;;;;;;;6.27;1.77;;;;;;;;;;5004979;28;20217;-70
2023/04/12 08:05:05;;;;;;;5.57;2.00;;;;;;;;;;5017101;28;20178;-70
2023/04/12 08:08:10;;;;;;;3.40;2.00;;;;;;;;;;5016815;28;20177;-70
2023/04/12 08:11:14;;;;;;;4.13;1.60;;;;;;;;;;5004635;28;20225;-70
2023/04/12 08:14:19;;;;;;;6.53;2.00;;;;;;;;;;5017046;28;20182;-69
2023/04/12 08:17:26;;;;;;;5.87;1.90;;;;;;;;;;5016803;28;20631;-69
2023/04/12 08:20:31;;;;;;;2.23;1.43;;;;;;;;;;5004840;28;20186;-70
2023/04/12 08:23:35;;;;;;;2.80;1.80;;;;;;;;;;5016768;28;20181;-71
2023/04/12 08:26:40;;;;;;;2.30;1.47;;;;;;;;;;5004332;28;20213;-70
2023/04/12 08:29:44;;;;;;;2.70;1.63;;;;;;;;;;5004368;28;20198;-71
2023/04/12 08:32:48;;;;;;;3.40;1.53;;;;;;;;;;5016630;28;20189;-71
2023/04/12 08:35:52;;;;;;;3.87;1.70;;;;;;;;;;5004849;28;20185;-70
2023/04/12 08:39:00;;;;;;;6.50;1.80;;;;;;;;;;5004279;28;20209;-70
2023/04/12 08:42:05;;;;;;;4.17;1.57;;;;;;;;;;5016431;28;20217;-70
2023/04/12 08:45:10;;;;;;;5.40;1.50;;;;;;;;;;5004428;28;20186;-70
2023/04/12 08:48:16;;;;;;;1.60;1.50;;;;;;;;;;5015998;28;20229;-70
2023/04/12 08:51:21;;;;;;;5.37;1.60;;;;;;;;;;5015182;28;20224;-70
2023/04/12 08:54:26;;;;;;;5.80;1.87;;;;;;;;;;5004239;28;20193;-72
2023/04/12 08:57:31;;;;;;;3.13;1.63;;;;;;;;;;5003342;28;20542;-71
2023/04/12 09:00:36;;;;;;;3.13;2.07;;;;;;;;;;5016027;28;20189;-71
2023/04/12 09:03:45;;;;;;;3.30;1.47;;;;;;;;;;5003852;28;20634;-71
2023/04/12 09:06:49;;;;;;;3.30;1.80;;;;;;;;;;5015128;28;20205;-71
2023/04/12 09:09:54;;;;;;;4.10;1.83;;;;;;;;;;5015635;28;20205;-71
2023/04/12 09:12:59;;;;;;;2.53;1.60;;;;;;;;;;5015662;28;20630;-71
2023/04/12 09:16:03;;;;;;;3.87;1.70;;;;;;;;;;5015645;28;20190;-71
2023/04/12 09:19:08;;;;;;;4.03;1.80;;;;;;;;;;5015576;28;20186;-72
2023/04/12 09:22:12;;;;;;;4.33;2.10;;;;;;;;;;5015702;28;20682;-70
2023/04/12 09:25:16;;;;;;;2.57;1.73;;;;;;;;;;5003318;28;20201;-71
2023/04/12 09:28:25;;;;;;;3.93;1.90;;;;;;;;;;5015306;28;20579;-71
2023/04/12 09:31:30;;;;;;;2.77;2.00;;;;;;;;;;5015328;28;20221;-71
2023/04/12 09:34:35;;;;;;;3.07;1.90;;;;;;;;;;5015726;28;20190;-71
2023/04/12 09:37:39;;;;;;;5.73;1.80;;;;;;;;;;5015421;28;20646;-71
2023/04/12 09:40:43;;;;;;;4.13;2.00;;;;;;;;;;5003145;28;20225;-70
2023/04/12 09:43:47;;;;;;;1.97;1.80;;;;;;;;;;5015526;28;20181;-71
2023/04/12 09:46:51;;;;;;;2.60;1.70;;;;;;;;;;5014741;28;20213;-71
2023/04/12 09:49:56;;;;;;;2.33;1.73;;;;;;;;;;4992051;28;20178;-71
2023/04/12 09:53:02;;;;;;;2.97;1.80;;;;;;;;;;5015001;28;20622;-70
2023/04/12 09:56:08;;;;;;;2.50;2.00;;;;;;;;;;5014800;28;20186;-71
2023/04/12 09:59:13;;;;;;;2.80;1.60;;;;;;;;;;5014809;28;20181;-71
2023/04/12 10:02:20;;;;;;;3.60;1.37;;;;;;;;;;5014620;28;20564;-71
2023/04/12 10:05:24;;;;;;;2.30;1.30;;;;;;;;;;5002781;28;20189;-71
2023/04/12 10:08:30;;;;;;;1.80;1.13;;;;;;;;;;5001828;28;20209;-71
2023/04/12 10:11:36;;;;;;;3.00;1.10;;;;;;;;;;5013583;28;20221;-70
2023/04/12 10:14:41;;;;;;;2.13;1.30;;;;;;;;;;4991171;28;20186;-69
2023/04/12 10:17:52;;;;;;;3.33;1.60;;;;;;;;;;5014527;28;20536;-68
2023/04/12 10:20:57;;;;;;;1.67;1.30;;;;;;;;;;5014483;28;20567;-70
2023/04/12 10:24:01;;;;;;;1.73;1.10;;;;;;;;;;5014555;28;20186;-71
2023/04/12 10:27:05;;;;;;;2.57;1.20;;;;;;;;;;5014421;28;20213;-71
2023/04/12 10:30:26;;;;;;;1.30;1.10;;;;;;;;;;5014489;28;20186;-70
2023/04/12 10:33:30;;;;;;;1.50;1.40;;;;;;;;;;5014179;28;20194;-70
2023/04/12 10:36:59;;;;;;;1.77;1.30;;;;;;;;;;5002311;28;20185;-71
2023/04/12 10:40:03;;;;;;;2.37;1.40;;;;;;;;;;5013915;28;20213;-70
2023/04/12 10:43:25;;;;;;;2.23;1.57;;;;;;;;;;5013998;28;20201;-71
2023/04/12 10:46:39;;;;;;;1.77;1.23;;;;;;;;;;5014383;28;20190;-71
2023/04/12 10:50:23;;;;;;;1.80;1.70;;;;;;;;;;5013900;28;20189;-71
2023/04/12 10:53:27;;;;;;;1.70;1.60;;;;;;;;;;5002067;28;20173;-71
2023/04/12 10:56:42;;;;;;;1.90;1.43;;;;;;;;;;5013018;28;20185;-70
2023/04/12 10:59:56;;;;;;;2.30;1.83;;;;;;;;;;5001918;28;20190;-71
2023/04/12 11:03:06;;;;;;;3.33;2.07;;;;;;;;;;5001570;28;20201;-71
2023/04/12 11:06:10;;;;;;;2.37;1.77;;;;;;;;;;5013955;28;20527;-71
2023/04/12 11:09:33;;;;;;;3.13;2.17;;;;;;;;;;5013840;28;20186;-71
2023/04/12 11:12:37;;;;;;;2.20;1.90;;;;;;;;;;5001382;28;20225;-70
2023/04/12 11:15:41;;;;;;;2.90;2.13;;;;;;;;;;5001628;28;20182;-70
2023/04/12 11:18:52;;;;;;;2.70;1.70;;;;;;;;;;5001606;28;20190;-71
2023/04/12 11:21:59;;;;;;;1.93;1.73;;;;;;;;;;5001456;28;20217;-71
2023/04/12 11:25:04;;;;;;;1.87;1.47;;;;;;;;;;5013643;28;20182;-71
2023/04/12 11:28:08;;;;;;;2.83;1.73;;;;;;;;;;5013249;28;20217;-71
2023/04/12 11:31:13;;;;;;;2.17;1.73;;;;;;;;;;5001081;28;20225;-71
2023/04/12 11:34:18;;;;;;;2.10;1.80;;;;;;;;;;5019860;23;20238;-73
2023/04/12 11:37:25;;;;;;;2.03;1.53;;;;;;;;;;4981807;28;20174;-72
2023/04/12 11:40:30;;;;;;;3.07;1.97;;;;;;;;;;4994618;28;20186;-72
2023/04/12 11:43:34;;;;;;;2.10;1.90;;;;;;;;;;4990164;28;20189;-74
2023/04/12 11:46:39;;;;;;;2.53;2.00;;;;;;;;;;4990131;28;20189;-72
2023/04/12 11:49:48;;;;;;;2.33;2.00;;;;;;;;;;5001503;28;20638;-74
2023/04/12 11:52:52;;;;;;;2.40;2.03;;;;;;;;;;5013071;28;20198;-72
2023/04/12 11:55:59;;;;;;;3.03;2.00;;;;;;;;;;5013452;28;20185;-73
2023/04/12 11:59:04;;;;;;;2.60;2.40;;;;;;;;;;5013000;28;20201;-73
2023/04/12 12:02:09;;;;;;;3.57;1.70;;;;;;;;;;4990396;28;20224;-73
2023/04/12 12:05:13;;;;;;;4.00;2.17;;;;;;;;;;5013921;28;20186;-73
2023/04/12 12:08:18;;;;;;;1.87;1.70;;;;;;;;;;5013472;28;20217;-73
2023/04/12 12:11:23;;;;;;;2.33;1.50;;;;;;;;;;4989914;28;20689;-73
2023/04/12 12:14:28;;;;;;;1.77;1.67;;;;;;;;;;5001592;28;20186;-72
2023/04/12 12:17:36;;;;;;;1.60;1.50;;;;;;;;;;5001169;28;20535;-73
2023/04/12 12:20:46;;;;;;;3.10;1.93;;;;;;;;;;5013905;28;20189;-73
2023/04/12 12:23:50;;;;;;;3.27;1.53;;;;;;;;;;5013465;28;20181;-73
2023/04/12 12:26:55;;;;;;;2.13;1.60;;;;;;;;;;5013178;28;20189;-73
2023/04/12 12:30:01;;;;;;;4.73;1.73;;;;;;;;;;5013102;28;20202;-73
2023/04/12 12:33:05;;;;;;;2.47;1.70;;;;;;;;;;5003569;28;20213;-73
2023/04/12 12:36:09;;;;;;;4.60;2.00;;;;;;;;;;5004672;28;20201;-73
2023/04/12 12:39:14;;;;;;;4.30;1.90;;;;;;;;;;4993213;28;20177;-73
2023/04/12 12:42:18;;;;;;;3.53;1.97;;;;;;;;;;5016356;28;20217;-73
2023/04/12 12:45:24;;;;;;;3.67;2.00;;;;;;;;;;5004522;28;20190;-73
2023/04/12 12:48:28;;;;;;;2.70;1.97;;;;;;;;;;5016136;28;20218;-73
2023/04/12 12:51:33;;;;;;;4.77;2.10;;;;;;;;;;5016230;28;20702;-73
2023/04/12 12:54:37;;;;;;;2.43;2.00;;;;;;;;;;5015671;28;20198;-73
2023/04/12 12:57:43;;;;;;;5.00;2.40;;;;;;;;;;5016788;28;20181;-73
2023/04/12 13:00:46;;;;;;;4.23;2.10;;;;;;;;;;5004192;28;20220;-73
2023/04/12 13:03:51;;;;;;;2.40;2.10;;;;;;;;;;5015864;28;20186;-73
2023/04/12 13:06:55;;;;;;;2.50;2.13;;;;;;;;;;5004272;28;20189;-73
2023/04/12 13:09:59;;;;;;;3.70;2.20;;;;;;;;;;5004261;28;20173;-73
2023/04/12 13:13:04;;;;;;;4.23;2.50;;;;;;;;;;5015168;28;20634;-73
2023/04/12 13:16:08;;;;;;;7.13;2.73;;;;;;;;;;5015932;28;20186;-73
2023/04/12 13:19:12;;;;;;;4.70;2.23;;;;;;;;;;4992985;28;20519;-73
2023/04/12 13:22:16;;;;;;;2.87;2.43;;;;;;;;;;5015748;28;20217;-73
2023/04/12 13:25:20;;;;;;;5.73;2.37;;;;;;;;;;5015701;28;20189;-73
2023/04/12 13:28:25;;;;;;;4.37;2.40;;;;;;;;;;5015643;28;20550;-73
2023/04/12 13:31:29;;;;;;;4.60;2.50;;;;;;;;;;5003256;28;20701;-73
2023/04/12 13:34:33;;;;;;;5.70;2.47;;;;;;;;;;4992081;28;20205;-73
2023/04/12 13:37:38;;;;;;;3.00;2.40;;;;;;;;;;5015500;28;20185;-73
2023/04/12 13:40:42;;;;;;;3.20;2.20;;;;;;;;;;5003248;28;20224;-73
2023/04/12 13:43:46;;;;;;;3.53;2.20;;;;;;;;;;5015302;28;20205;-74
2023/04/12 13:46:51;;;;;;;2.97;2.23;;;;;;;;;;5003131;28;20205;-73
2023/04/12 13:49:54;;;;;;;5.00;2.73;;;;;;;;;;5003133;28;20673;-73
2023/04/12 13:52:58;;;;;;;3.33;2.30;;;;;;;;;;5015089;28;20634;-72
2023/04/12 13:56:03;;;;;;;4.07;1.93;;;;;;;;;;5002760;28;20201;-73
2023/04/12 13:59:07;;;;;;;3.27;2.20;;;;;;;;;;5014708;28;20181;-73
2023/04/12 14:02:11;;;;;;;3.43;2.10;;;;;;;;;;5002528;28;20221;-73
2023/04/12 14:05:15;;;;;;;5.20;2.17;;;;;;;;;;5002902;28;20531;-73
2023/04/12 14:08:19;;;;;;;4.27;2.30;;;;;;;;;;5002378;28;20209;-73
2023/04/12 14:11:23;;;;;;;3.50;2.00;;;;;;;;;;5002572;28;20694;-73
2023/04/12 14:14:27;;;;;;;4.37;1.80;;;;;;;;;;5014419;28;20181;-73
2023/04/12 14:17:32;;;;;;;2.70;1.77;;;;;;;;;;5014421;28;20178;-73
2023/04/12 14:20:36;;;;;;;3.90;1.80;;;;;;;;;;4991569;28;20535;-73
2023/04/12 14:23:40;;;;;;;2.10;1.70;;;;;;;;;;5014644;28;20185;-72
2023/04/12 14:26:44;;;;;;;2.00;1.37;;;;;;;;;;5002380;28;20182;-72
2023/04/12 14:29:48;;;;;;;1.87;1.20;;;;;;;;;;5002348;28;20228;-72
2023/04/12 14:32:52;;;;;;;2.67;1.33;;;;;;;;;;5014331;28;20209;-73
2023/04/12 14:35:56;;;;;;;2.50;1.00;;;;;;;;;;4990862;28;20580;-73
2023/04/12 14:39:02;;;;;;;1.57;1.10;;;;;;;;;;5014115;28;20197;-73
2023/04/12 14:42:06;;;;;;;2.90;0.97;;;;;;;;;;5014160;28;20217;-73
2023/04/12 14:45:11;;;;;;;4.10;1.07;;;;;;;;;;5013837;28;20201;-73
2023/04/12 14:48:15;;;;;;;2.27;1.00;;;;;;;;;;5013795;28;20233;-74
2023/04/12 14:51:19;;;;;;;1.77;1.07;;;;;;;;;;5001820;28;20212;-74
2023/04/12 14:54:23;;;;;;;2.40;1.00;;;;;;;;;;4990389;28;20186;-73
2023/04/12 14:57:27;;;;;;;1.33;0.80;;;;;;;;;;5013075;28;20186;-74
2023/04/12 15:00:35;;;;;;;3.20;0.93;;;;;;;;;;5013824;28;20197;-73
2023/04/12 15:03:40;;;;;;;2.33;0.90;;;;;;;;;;5013505;28;20197;-73
2023/04/12 15:06:44;;;;;;;2.33;0.90;;;;;;;;;;5013556;28;20181;-73
2023/04/12 15:09:49;;;;;;;2.70;0.80;;;;;;;;;;5001680;28;20217;-73
2023/04/12 15:12:53;;;;;;;2.27;0.80;;;;;;;;;;5013524;28;20190;-73
2023/04/12 15:15:57;;;;;;;2.60;1.07;;;;;;;;;;5001274;28;20201;-73
2023/04/12 15:19:01;;;;;;;1.43;0.60;;;;;;;;;;5013672;28;20182;-74
2023/04/12 15:22:05;;;;;;;1.07;0.90;;;;;;;;;;5013462;28;20224;-73
2023/04/12 15:25:10;;;;;;;1.00;0.60;;;;;;;;;;5013415;28;20181;-73
2023/04/12 15:28:14;;;;;;;1.37;0.83;;;;;;;;;;5013740;28;20209;-73
2023/04/12 15:31:18;;;;;;;1.60;0.70;;;;;;;;;;5001297;28;20562;-73
2023/04/12 15:34:24;;;;;;;1.57;0.50;;;;;;;;;;5013234;28;20212;-73
2023/04/12 15:37:27;;;;;;;1.03;0.77;;;;;;;;;;5001450;28;20186;-73
2023/04/12 15:40:32;;;;;;;3.47;1.70;;;;;;;;;;5012630;28;20181;-74
2023/04/12 15:43:36;;;;;;;1.87;0.80;;;;;;;;;;5013140;28;20189;-73
2023/04/12 15:46:41;;;;;;;1.40;0.70;;;;;;;;;;5013520;28;20579;-73
2023/04/12 15:49:46;;;;;;;1.53;1.00;;;;;;;;;;5013329;28;20221;-74
2023/04/12 15:52:52;;;;;;;1.00;0.70;;;;;;;;;;5013257;28;20229;-74
2023/04/12 15:55:56;;;;;;;1.47;0.90;;;;;;;;;;5012968;28;20185;-73
2023/04/12 15:59:00;;;;;;;2.63;0.90;;;;;;;;;;5013246;28;20181;-73
2023/04/12 16:02:07;;;;;;;0.50;0.43;;;;;;;;;;5013039;28;20217;-73
2023/04/12 16:05:12;;;;;;;0.80;0.60;;;;;;;;;;5013237;28;20182;-73
2023/04/12 16:08:16;;;;;;;1.67;0.73;;;;;;;;;;4993198;28;20523;-74
2023/04/12 16:11:25;;;;;;;1.77;0.50;;;;;;;;;;5016818;28;20216;-73
2023/04/12 16:14:31;;;;;;;1.60;0.60;;;;;;;;;;5004935;28;20185;-74
2023/04/12 16:17:36;;;;;;;1.07;0.60;;;;;;;;;;4993593;28;20643;-74
2023/04/12 16:20:40;;;;;;;0.57;0.40;;;;;;;;;;5016520;28;20182;-74
2023/04/12 16:23:46;;;;;;;0.67;0.60;;;;;;;;;;5016793;28;20186;-75
2023/04/12 16:26:50;;;;;;;1.17;0.60;;;;;;;;;;5004458;28;20527;-74
2023/04/12 16:29:56;;;;;;;0.63;0.50;;;;;;;;;;5016586;28;20213;-74
2023/04/12 16:33:00;;;;;;;1.07;0.50;;;;;;;;;;5004333;28;20190;-73
2023/04/12 16:36:04;;;;;;;0.57;0.50;;;;;;;;;;5016283;28;20201;-73
2023/04/12 16:39:10;;;;;;;1.87;0.63;;;;;;;;;;5004112;28;20193;-73
2023/04/12 16:42:14;;;;;;;1.27;0.70;;;;;;;;;;5016075;28;20702;-74
2023/04/12 16:45:19;;;;;;;1.17;0.77;;;;;;;;;;5016293;28;20193;-73
2023/04/12 16:48:25;;;;;;;1.33;0.83;;;;;;;;;;5015125;28;20189;-73
2023/04/12 16:51:29;;;;;;;1.33;0.80;;;;;;;;;;5004168;28;20678;-73
2023/04/12 16:54:33;;;;;;;2.77;1.13;;;;;;;;;;5004540;28;20194;-74
2023/04/12 16:57:39;;;;;;;1.33;0.73;;;;;;;;;;5015212;28;20185;-75
2023/04/12 17:00:43;;;;;;;1.80;1.00;;;;;;;;;;5003821;28;20678;-73
2023/04/12 17:03:47;;;;;;;4.67;1.27;;;;;;;;;;5015813;28;20197;-73
2023/04/12 17:06:52;;;;;;;3.30;0.93;;;;;;;;;;5016221;28;20189;-72
2023/04/12 17:09:56;;;;;;;1.57;1.00;;;;;;;;;;5015985;28;20213;-73
2023/04/12 17:13:00;;;;;;;2.37;1.00;;;;;;;;;;5016082;28;20181;-73
2023/04/12 17:16:05;;;;;;;1.03;0.90;;;;;;;;;;5015853;28;20186;-73
2023/04/12 17:19:09;;;;;;;1.67;0.87;;;;;;;;;;5003303;28;20178;-73
2023/04/12 17:22:13;;;;;;;1.23;0.93;;;;;;;;;;5003648;28;20225;-73
2023/04/12 17:25:18;;;;;;;1.10;0.80;;;;;;;;;;5015390;28;20206;-74
2023/04/12 17:28:22;;;;;;;2.43;1.10;;;;;;;;;;5015245;28;20205;-73
2023/04/12 17:31:30;;;;;;;3.23;1.00;;;;;;;;;;4992231;28;20217;-73
2023/04/12 17:34:34;;;;;;;0.70;0.70;;;;;;;;;;5015412;28;20693;-73
2023/04/12 17:37:39;;;;;;;1.87;1.00;;;;;;;;;;5015436;28;20193;-74
2023/04/12 17:40:43;;;;;;;1.03;0.70;;;;;;;;;;5003326;28;20217;-73
2023/04/12 17:43:47;;;;;;;0.80;0.63;;;;;;;;;;5003638;28;20181;-73
2023/04/12 17:46:51;;;;;;;0.70;0.60;;;;;;;;;;5014664;28;20189;-73
2023/04/12 17:49:56;;;;;;;1.50;1.00;;;;;;;;;;5015703;28;20213;-73
2023/04/12 17:53:00;;;;;;;1.23;0.70;;;;;;;;;;5014346;28;20185;-73
2023/04/12 17:56:05;;;;;;;3.57;1.17;;;;;;;;;;5015082;28;20185;-74
2023/04/12 17:59:10;;;;;;;1.33;0.97;;;;;;;;;;4992026;28;20639;-72
2023/04/12 18:02:15;;;;;;;1.03;0.80;;;;;;;;;;5014871;28;20225;-72
2023/04/12 18:05:20;;;;;;;0.60;0.57;;;;;;;;;;5014887;28;20528;-73
2023/04/12 18:08:24;;;;;;;1.23;0.57;;;;;;;;;;5002925;28;20186;-73
2023/04/12 18:11:28;;;;;;;1.43;0.53;;;;;;;;;;5002606;28;20213;-73
2023/04/12 18:14:33;;;;;;;0.90;0.60;;;;;;;;;;5002355;28;20190;-73
2023/04/12 18:17:38;;;;;;;1.50;0.63;;;;;;;;;;5014736;28;20189;-72
2023/04/12 18:20:42;;;;;;;2.13;0.63;;;;;;;;;;5014518;28;20182;-73
2023/04/12 18:23:46;;;;;;;1.67;0.80;;;;;;;;;;5014544;28;20185;-72
2023/04/12 18:26:50;;;;;;;6.80;3.40;;;;;;;;;;5014425;28;20177;-73
2023/04/12 18:29:55;;;;;;;1.40;0.60;;;;;;;;;;5001548;28;20567;-72
2023/04/12 18:33:00;;;;;;;0.40;0.40;;;;;;;;;;5002045;28;20181;-72
2023/04/12 18:36:04;;;;;;;2.20;0.60;;;;;;;;;;5014710;28;20185;-73